createdAt,value
2023-02-16T20:54:16.360Z,17.23
2023-02-16T20:56:47.987Z,17.13
2023-02-16T20:59:19.958Z,18.83
2023-02-16T21:01:52.872Z,17.58
2023-02-16T21:04:24.840Z,17.75
2023-02-16T21:06:57.040Z,18.85
2023-02-16T21:09:28.784Z,17.65
2023-02-16T21:12:00.810Z,19.00
2023-02-16T21:14:32.529Z,18.95
2023-02-16T21:17:04.290Z,17.33
2023-02-16T21:19:37.915Z,17.98
2023-02-16T21:22:09.716Z,18.05
2023-02-16T21:24:42.147Z,17.17
2023-02-16T21:27:13.822Z,17.88
2023-02-16T21:29:45.560Z,17.50
2023-02-16T21:32:17.230Z,17.77
2023-02-16T21:34:48.966Z,17.70
2023-02-16T21:37:20.968Z,17.85
2023-02-16T21:40:11.494Z,18.33
2023-02-16T21:42:43.182Z,17.67
2023-02-16T21:45:14.968Z,18.38
2023-02-16T21:48:06.285Z,18.33
2023-02-16T21:50:40.320Z,17.77
2023-02-16T21:53:12.038Z,17.75
2023-02-16T21:56:02.360Z,17.40
2023-02-16T21:58:34.225Z,17.85
2023-02-16T22:01:06.039Z,18.55
2023-02-16T22:03:38.268Z,18.67
2023-02-16T22:06:10.984Z,18.20
2023-02-16T22:08:42.786Z,19.52
2023-02-16T22:11:14.904Z,18.98
2023-02-16T22:13:46.711Z,19.25
2023-02-16T22:16:19.201Z,19.90
2023-02-16T22:19:03.744Z,19.02
2023-02-16T22:21:38.546Z,19.10
2023-02-16T22:24:13.345Z,18.45
2023-02-16T22:29:18.687Z,18.92
2023-02-16T22:31:50.425Z,19.00
2023-02-16T22:34:22.603Z,20.50
2023-02-16T22:36:54.459Z,19.58
2023-02-16T22:39:26.187Z,19.45
2023-02-16T22:41:57.884Z,20.13
2023-02-16T22:44:29.635Z,19.85
2023-02-16T22:47:01.345Z,19.55
2023-02-16T22:49:33.105Z,20.50
2023-02-16T22:52:05.097Z,19.92
2023-02-16T22:54:37.707Z,21.25
2023-02-16T22:57:09.471Z,19.33
2023-02-16T22:59:41.140Z,20.55
2023-02-16T23:02:13.867Z,19.00
2023-02-16T23:04:45.985Z,20.75
2023-02-16T23:07:17.722Z,19.23
2023-02-16T23:09:49.606Z,18.38
2023-02-16T23:12:21.323Z,19.88
2023-02-16T23:14:53.761Z,20.42
2023-02-16T23:17:25.579Z,21.58
2023-02-16T23:19:57.361Z,22.23
2023-02-16T23:22:29.639Z,20.67
2023-02-16T23:25:20.027Z,19.42
2023-02-16T23:27:53.187Z,20.02
2023-02-16T23:30:25.197Z,19.45
2023-02-16T23:32:57.276Z,20.27
2023-02-16T23:35:28.910Z,20.02
2023-02-16T23:38:02.901Z,19.58
2023-02-16T23:40:34.820Z,20.70
2023-02-16T23:43:06.563Z,20.55
2023-02-16T23:45:38.991Z,19.42
2023-02-16T23:48:10.682Z,19.33
2023-02-16T23:50:42.519Z,20.58
2023-02-16T23:53:14.191Z,20.70
2023-02-16T23:55:59.904Z,21.00
2023-02-16T23:58:36.818Z,20.75
